Time;durP1;ratioP1;P1;durP2;ratioP2;P2;SDS_P1;SDS_P2;PMS_P1;PMS_P2;Temp;Humidity;BMP_temperature;BMP_pressure;BME280_temperature;BME280_humidity;BME280_pressure;Samples;Min_cycle;Max_cycle;Signal;HPM_P1;HPM_P2
2022/09/17 00:00:38;;;;;;;;;;;9.20;99.90;;;;;;5078734;28;19966;-63
2022/09/17 00:03:04;;;;;;;;;;;9.30;99.90;;;;;;5082573;28;20007;-63
2022/09/17 00:05:30;;;;;;;;;;;9.40;99.90;;;;;;5079297;28;19955;-64
2022/09/17 00:07:56;;;;;;;;;;;9.40;99.90;;;;;;5079834;28;20420;-63
2022/09/17 00:10:22;;;;;;;;;;;9.30;99.90;;;;;;5082228;28;19921;-63
2022/09/17 00:12:47;;;;;;;;;;;9.30;99.90;;;;;;5073101;28;19924;-63
2022/09/17 00:15:13;;;;;;;;;;;9.40;99.90;;;;;;5073925;28;19948;-63
2022/09/17 00:17:40;;;;;;;;;;;9.40;99.90;;;;;;5070949;28;19955;-63
2022/09/17 00:20:08;;;;;;;;;;;9.30;99.90;;;;;;5070214;28;19913;-63
2022/09/17 00:22:34;;;;;;;;;;;9.30;99.90;;;;;;5050592;28;19921;-62
2022/09/17 00:25:00;;;;;;;;;;;9.30;99.90;;;;;;5062695;28;20422;-63
2022/09/17 00:27:26;;;;;;;;;;;9.30;99.90;;;;;;5061497;28;19931;-63
2022/09/17 00:29:51;;;;;;;;;;;9.40;99.90;;;;;;5081321;28;20003;-64
2022/09/17 00:32:17;;;;;;;;;;;9.50;99.90;;;;;;5081320;28;19991;-63
2022/09/17 00:34:42;;;;;;;;;;;9.50;99.90;;;;;;5079257;28;19935;-63
2022/09/17 00:37:08;;;;;;;;;;;9.40;99.90;;;;;;5077304;28;19913;-63
2022/09/17 00:39:33;;;;;;;;;;;9.40;99.90;;;;;;5075659;28;19916;-63
2022/09/17 00:41:59;;;;;;;;;;;9.40;99.90;;;;;;5073351;28;19934;-63
2022/09/17 00:44:40;;;;;;;;;;;9.30;99.90;;;;;;5080013;28;19908;-63
2022/09/17 00:47:14;;;;;;;;;;;9.40;99.90;;;;;;5077760;28;19919;-63
2022/09/17 00:49:39;;;;;;;;;;;9.40;99.90;;;;;;5078141;28;19935;-62
2022/09/17 00:52:08;;;;;;;;;;;9.40;99.90;;;;;;5080725;28;19920;-62
2022/09/17 00:54:35;;;;;;;;;;;9.50;99.90;;;;;;5079736;28;20302;-64
2022/09/17 00:57:01;;;;;;;;;;;9.60;99.90;;;;;;5074717;28;19912;-62
2022/09/17 00:59:27;;;;;;;;;;;9.60;99.90;;;;;;5077474;28;19915;-63
2022/09/17 01:01:53;;;;;;;;;;;9.50;99.90;;;;;;5080173;28;19963;-63
2022/09/17 01:04:21;;;;;;;;;;;9.40;99.90;;;;;;5062395;28;19913;-63
2022/09/17 01:07:05;;;;;;;;;;;9.20;99.90;;;;;;5077672;28;20522;-62
2022/09/17 01:09:40;;;;;;;;;;;9.10;99.90;;;;;;5080071;28;19920;-62
2022/09/17 01:12:14;;;;;;;;;;;9.20;99.90;;;;;;5079285;28;19935;-63
2022/09/17 01:14:43;;;;;;;;;;;9.20;99.90;;;;;;5081436;28;19913;-63
2022/09/17 01:17:27;;;;;;;;;;;9.30;99.90;;;;;;5073527;28;19939;-63
2022/09/17 01:20:11;;;;;;;;;;;9.30;99.90;;;;;;5076411;28;20065;-64
2022/09/17 01:22:36;;;;;;;;;;;9.30;99.90;;;;;;5084293;28;19912;-63
2022/09/17 01:25:28;;;;;;;;;;;9.30;99.90;;;;;;5079644;28;19973;-63
2022/09/17 01:27:54;;;;;;;;;;;9.40;99.90;;;;;;5078053;28;19928;-64
2022/09/17 01:30:38;;;;;;;;;;;9.40;99.90;;;;;;5079051;28;19972;-63
2022/09/17 01:33:12;;;;;;;;;;;9.40;99.90;;;;;;5076804;28;19990;-63
2022/09/17 01:35:54;;;;;;;;;;;9.30;99.90;;;;;;5077324;28;19916;-63
2022/09/17 01:38:25;;;;;;;;;;;9.30;99.90;;;;;;5076705;28;19912;-63
2022/09/17 01:40:51;;;;;;;;;;;9.10;99.90;;;;;;5079900;28;19919;-63
2022/09/17 01:43:16;;;;;;;;;;;9.20;99.90;;;;;;5083926;28;19916;-62
2022/09/17 01:45:47;;;;;;;;;;;9.20;99.90;;;;;;5084875;28;19924;-64
2022/09/17 01:48:20;;;;;;;;;;;9.30;99.90;;;;;;5073521;28;19920;-62
2022/09/17 01:50:51;;;;;;;;;;;9.20;99.90;;;;;;5084488;28;19908;-62
2022/09/17 01:53:18;;;;;;;;;;;9.20;99.90;;;;;;5083643;28;19912;-64
2022/09/17 01:55:45;;;;;;;;;;;9.20;99.90;;;;;;5079452;28;20013;-62
2022/09/17 01:58:20;;;;;;;;;;;9.30;99.90;;;;;;5082111;28;19912;-62
2022/09/17 02:00:49;;;;;;;;;;;9.20;99.90;;;;;;5083890;28;19913;-62
2022/09/17 02:03:21;;;;;;;;;;;9.20;99.90;;;;;;5081524;28;19921;-63
2022/09/17 02:05:56;;;;;;;;;;;9.20;99.90;;;;;;5073013;28;19920;-63
2022/09/17 02:08:35;;;;;;;;;;;9.20;99.90;;;;;;5081806;28;20359;-63
2022/09/17 02:11:05;;;;;;;;;;;9.20;99.90;;;;;;5084443;28;19925;-63
2022/09/17 02:13:43;;;;;;;;;;;9.10;99.90;;;;;;5075837;28;20003;-63
2022/09/17 02:16:13;;;;;;;;;;;9.00;99.90;;;;;;5076953;28;19923;-63
2022/09/17 02:18:48;;;;;;;;;;;8.90;99.90;;;;;;5082976;28;19992;-63
2022/09/17 02:21:22;;;;;;;;;;;9.00;99.90;;;;;;5073738;28;20386;-63
2022/09/17 02:23:59;;;;;;;;;;;9.00;99.90;;;;;;5074281;28;19919;-63
2022/09/17 02:26:25;;;;;;;;;;;8.90;99.90;;;;;;5078365;28;19934;-63
2022/09/17 02:28:54;;;;;;;;;;;8.80;99.90;;;;;;5081447;28;19912;-62
2022/09/17 02:31:19;;;;;;;;;;;8.90;99.90;;;;;;5079601;28;19921;-63
2022/09/17 02:33:50;;;;;;;;;;;8.90;99.90;;;;;;5077460;28;20383;-63
2022/09/17 02:36:16;;;;;;;;;;;8.80;99.90;;;;;;5069581;28;19952;-63
2022/09/17 02:38:43;;;;;;;;;;;8.70;99.90;;;;;;5067975;28;20303;-62
2022/09/17 02:41:08;;;;;;;;;;;8.70;99.90;;;;;;5068937;28;19980;-64
2022/09/17 02:43:41;;;;;;;;;;;8.80;99.90;;;;;;5071692;28;19948;-63
2022/09/17 02:46:19;;;;;;;;;;;8.80;99.90;;;;;;5069740;28;19913;-63
2022/09/17 02:49:03;;;;;;;;;;;8.60;99.90;;;;;;5079871;28;20374;-63
2022/09/17 02:51:39;;;;;;;;;;;8.50;99.90;;;;;;5077646;28;19943;-64
2022/09/17 02:54:24;;;;;;;;;;;8.50;99.90;;;;;;5080219;28;19916;-63
2022/09/17 02:57:02;;;;;;;;;;;8.50;99.90;;;;;;5079682;28;19920;-63
2022/09/17 02:59:34;;;;;;;;;;;8.60;99.90;;;;;;5076859;28;19962;-62
2022/09/17 03:01:59;;;;;;;;;;;8.50;99.90;;;;;;5080603;28;20584;-62
2022/09/17 03:04:27;;;;;;;;;;;8.50;99.90;;;;;;5080230;28;19944;-62
2022/09/17 03:06:54;;;;;;;;;;;8.50;99.90;;;;;;5077789;28;19913;-63
2022/09/17 03:09:19;;;;;;;;;;;8.40;99.90;;;;;;5077960;28;20280;-63
2022/09/17 03:11:45;;;;;;;;;;;8.50;99.90;;;;;;5078789;28;19932;-63
2022/09/17 03:14:10;;;;;;;;;;;8.40;99.90;;;;;;5079896;28;20013;-62
2022/09/17 03:16:36;;;;;;;;;;;8.40;99.90;;;;;;5071259;28;19981;-63
2022/09/17 03:19:01;;;;;;;;;;;8.50;99.90;;;;;;5080830;28;19948;-63
2022/09/17 03:21:27;;;;;;;;;;;8.50;99.90;;;;;;5076753;28;19947;-63
2022/09/17 03:23:53;;;;;;;;;;;8.50;99.90;;;;;;5080975;28;19917;-63
2022/09/17 03:26:18;;;;;;;;;;;8.50;99.90;;;;;;5078504;28;19912;-64
2022/09/17 03:28:44;;;;;;;;;;;8.50;99.90;;;;;;5079584;28;19916;-62
2022/09/17 03:31:09;;;;;;;;;;;8.50;99.90;;;;;;5081192;28;19928;-63
2022/09/17 03:33:35;;;;;;;;;;;8.50;99.90;;;;;;5073682;28;19912;-63
2022/09/17 03:36:01;;;;;;;;;;;8.40;99.90;;;;;;5072077;28;19958;-64
2022/09/17 03:38:26;;;;;;;;;;;8.40;99.90;;;;;;5080268;28;19999;-62
2022/09/17 03:40:55;;;;;;;;;;;8.40;99.90;;;;;;5078880;28;20430;-63
2022/09/17 03:43:21;;;;;;;;;;;8.40;99.90;;;;;;5075633;28;19920;-63
2022/09/17 03:45:48;;;;;;;;;;;8.30;99.90;;;;;;5079565;28;19986;-63
2022/09/17 03:48:13;;;;;;;;;;;8.30;99.90;;;;;;5078445;28;19980;-63
2022/09/17 03:50:39;;;;;;;;;;;8.30;99.90;;;;;;5078422;28;20393;-62
2022/09/17 03:53:05;;;;;;;;;;;8.30;99.90;;;;;;5076238;28;20003;-63
2022/09/17 03:55:30;;;;;;;;;;;8.20;99.90;;;;;;5068802;28;19920;-63
2022/09/17 03:57:56;;;;;;;;;;;8.20;99.90;;;;;;5074680;28;19913;-62
2022/09/17 04:00:21;;;;;;;;;;;8.10;99.90;;;;;;5066616;28;20429;-63
2022/09/17 04:02:47;;;;;;;;;;;8.10;99.90;;;;;;5054971;28;19948;-63
2022/09/17 04:05:13;;;;;;;;;;;8.20;99.90;;;;;;5080826;28;19947;-62
2022/09/17 04:07:39;;;;;;;;;;;8.20;99.90;;;;;;5072534;28;19984;-63
2022/09/17 04:10:05;;;;;;;;;;;8.10;99.90;;;;;;5077751;28;19920;-63
2022/09/17 04:12:31;;;;;;;;;;;8.10;99.90;;;;;;5073180;28;19926;-62
2022/09/17 04:14:56;;;;;;;;;;;8.10;99.90;;;;;;5075388;28;19912;-63
2022/09/17 04:17:22;;;;;;;;;;;8.20;99.90;;;;;;5081049;28;19977;-63
2022/09/17 04:19:47;;;;;;;;;;;8.30;99.90;;;;;;5075168;28;19919;-63
2022/09/17 04:22:13;;;;;;;;;;;8.20;99.90;;;;;;5077459;28;20294;-63
2022/09/17 04:24:38;;;;;;;;;;;8.10;99.90;;;;;;5082263;28;19921;-63
2022/09/17 04:27:04;;;;;;;;;;;8.20;99.90;;;;;;5074371;28;19916;-63
2022/09/17 04:29:29;;;;;;;;;;;8.30;99.90;;;;;;5083378;28;19912;-63
2022/09/17 04:31:55;;;;;;;;;;;8.20;99.90;;;;;;5080357;28;19931;-64
2022/09/17 04:34:20;;;;;;;;;;;8.20;99.90;;;;;;5076315;28;19940;-63
2022/09/17 04:36:46;;;;;;;;;;;8.20;99.90;;;;;;5070500;28;19912;-63
2022/09/17 04:39:11;;;;;;;;;;;8.20;99.90;;;;;;5071537;28;19916;-62
2022/09/17 04:41:37;;;;;;;;;;;8.10;99.90;;;;;;5070957;28;19920;-62
2022/09/17 04:44:03;;;;;;;;;;;8.10;99.90;;;;;;5070960;28;20322;-63
2022/09/17 04:46:28;;;;;;;;;;;8.00;99.90;;;;;;5069296;28;19920;-62
2022/09/17 04:48:54;;;;;;;;;;;8.00;99.90;;;;;;5073640;28;19981;-63
2022/09/17 04:51:19;;;;;;;;;;;8.00;99.90;;;;;;5073962;28;19928;-64
2022/09/17 04:53:45;;;;;;;;;;;8.00;99.90;;;;;;5077147;28;19920;-63
2022/09/17 04:56:10;;;;;;;;;;;8.00;99.90;;;;;;5062511;28;19912;-63
2022/09/17 04:58:36;;;;;;;;;;;8.00;99.90;;;;;;5071427;28;19951;-63
2022/09/17 05:01:01;;;;;;;;;;;8.00;99.90;;;;;;5068336;28;19920;-64
2022/09/17 05:03:27;;;;;;;;;;;7.90;99.90;;;;;;5081114;28;19913;-63
2022/09/17 05:05:52;;;;;;;;;;;7.90;99.90;;;;;;5080765;28;19936;-64
2022/09/17 05:08:18;;;;;;;;;;;7.90;99.90;;;;;;5075475;28;20012;-64
2022/09/17 05:10:43;;;;;;;;;;;7.90;99.90;;;;;;5074357;28;19920;-63
2022/09/17 05:13:09;;;;;;;;;;;8.00;99.90;;;;;;5076306;28;19924;-63
2022/09/17 05:15:34;;;;;;;;;;;8.00;99.90;;;;;;5076880;28;20337;-62
2022/09/17 05:18:00;;;;;;;;;;;7.90;99.90;;;;;;5049489;28;19912;-63
2022/09/17 05:20:25;;;;;;;;;;;7.90;99.90;;;;;;5068148;28;19912;-63
2022/09/17 05:22:51;;;;;;;;;;;7.90;99.90;;;;;;5069769;28;20355;-64
2022/09/17 05:25:18;;;;;;;;;;;7.90;99.90;;;;;;5070579;28;20300;-63
2022/09/17 05:27:44;;;;;;;;;;;8.00;99.90;;;;;;5057532;28;19913;-63
2022/09/17 05:30:10;;;;;;;;;;;8.00;99.90;;;;;;5055839;28;19920;-63
2022/09/17 05:32:36;;;;;;;;;;;7.90;99.90;;;;;;5076743;28;19920;-63
2022/09/17 05:35:03;;;;;;;;;;;7.90;99.90;;;;;;5077013;28;19916;-64
2022/09/17 05:37:28;;;;;;;;;;;7.90;99.90;;;;;;5077505;28;20314;-63
2022/09/17 05:39:54;;;;;;;;;;;7.90;99.90;;;;;;5077410;28;19920;-63
2022/09/17 05:42:19;;;;;;;;;;;7.90;99.90;;;;;;5074623;28;19919;-62
2022/09/17 05:44:45;;;;;;;;;;;7.80;99.90;;;;;;5070679;28;19912;-62
2022/09/17 05:47:10;;;;;;;;;;;7.80;99.90;;;;;;5064031;28;19916;-62
2022/09/17 05:49:36;;;;;;;;;;;7.90;99.90;;;;;;5077330;28;20005;-64
2022/09/17 05:52:02;;;;;;;;;;;7.90;99.90;;;;;;5078990;28;19917;-64
2022/09/17 05:54:28;;;;;;;;;;;8.00;99.90;;;;;;5074304;28;19966;-63
2022/09/17 05:56:54;;;;;;;;;;;8.10;99.90;;;;;;5080177;28;20327;-64
2022/09/17 05:59:19;;;;;;;;;;;8.10;99.90;;;;;;5080960;28;20403;-64
2022/09/17 06:01:45;;;;;;;;;;;8.00;99.90;;;;;;5077541;28;19965;-64
2022/09/17 06:04:11;;;;;;;;;;;8.10;99.90;;;;;;5074813;28;19919;-64
2022/09/17 06:06:37;;;;;;;;;;;8.00;99.90;;;;;;5061812;28;19919;-63
2022/09/17 06:09:06;;;;;;;;;;;8.00;99.90;;;;;;5078100;28;19913;-64
2022/09/17 06:11:32;;;;;;;;;;;8.00;99.90;;;;;;5078423;28;21255;-64
2022/09/17 06:13:57;;;;;;;;;;;8.10;99.90;;;;;;5075728;28;19935;-63
2022/09/17 06:16:23;;;;;;;;;;;8.10;99.90;;;;;;5070646;28;19916;-63
2022/09/17 06:18:49;;;;;;;;;;;8.20;99.90;;;;;;5076063;28;19967;-63
2022/09/17 06:21:16;;;;;;;;;;;8.30;99.90;;;;;;5075841;28;19919;-64
2022/09/17 06:23:42;;;;;;;;;;;8.50;99.90;;;;;;5074271;28;19928;-64
2022/09/17 06:26:08;;;;;;;;;;;8.60;99.90;;;;;;5076264;28;19955;-65
2022/09/17 06:28:33;;;;;;;;;;;8.80;99.90;;;;;;5075234;28;20283;-63
2022/09/17 06:31:00;;;;;;;;;;;8.70;99.90;;;;;;5080204;28;19916;-63
2022/09/17 06:33:25;;;;;;;;;;;8.80;99.90;;;;;;5078835;28;19927;-63
2022/09/17 06:35:59;;;;;;;;;;;8.90;99.90;;;;;;5059589;28;19912;-63
2022/09/17 06:38:29;;;;;;;;;;;8.90;99.90;;;;;;5074561;28;19912;-64
2022/09/17 06:40:55;;;;;;;;;;;9.00;99.90;;;;;;5079972;28;19912;-63
2022/09/17 06:43:21;;;;;;;;;;;9.00;99.90;;;;;;5082490;28;19913;-63
2022/09/17 06:45:53;;;;;;;;;;;9.00;99.90;;;;;;5080129;28;19916;-63
2022/09/17 06:48:19;;;;;;;;;;;9.00;99.90;;;;;;5061239;28;19912;-64
2022/09/17 06:50:45;;;;;;;;;;;8.90;99.90;;;;;;5079554;28;19921;-62
2022/09/17 06:53:10;;;;;;;;;;;9.00;99.90;;;;;;5077369;28;19992;-63
2022/09/17 06:55:36;;;;;;;;;;;9.00;99.90;;;;;;5083206;28;19999;-63
2022/09/17 06:58:01;;;;;;;;;;;9.00;99.90;;;;;;5077519;28;20314;-63
2022/09/17 07:00:27;;;;;;;;;;;9.00;99.90;;;;;;5062030;28;19913;-65
2022/09/17 07:02:59;;;;;;;;;;;9.10;99.90;;;;;;5076495;28;19919;-63
2022/09/17 07:05:26;;;;;;;;;;;9.20;99.90;;;;;;5074649;28;19916;-63
2022/09/17 07:07:52;;;;;;;;;;;9.30;99.90;;;;;;5074725;28;20151;-64
2022/09/17 07:10:17;;;;;;;;;;;9.40;99.90;;;;;;5075653;28;20463;-63
2022/09/17 07:12:43;;;;;;;;;;;9.40;99.90;;;;;;5078682;28;20291;-63
2022/09/17 07:15:10;;;;;;;;;;;9.60;99.90;;;;;;5081565;28;20371;-64
2022/09/17 07:17:38;;;;;;;;;;;9.60;99.90;;;;;;5074256;28;19912;-62
2022/09/17 07:20:03;;;;;;;;;;;9.70;99.90;;;;;;5076099;28;19932;-63
2022/09/17 07:22:29;;;;;;;;;;;9.70;99.90;;;;;;5080015;28;19973;-63
2022/09/17 07:24:54;;;;;;;;;;;9.80;99.90;;;;;;5074269;28;19912;-64
2022/09/17 07:27:20;;;;;;;;;;;9.80;99.90;;;;;;5081730;28;19943;-63
2022/09/17 07:29:46;;;;;;;;;;;9.90;99.90;;;;;;5082677;28;19985;-63
2022/09/17 07:32:11;;;;;;;;;;;10.00;99.90;;;;;;5084119;28;19916;-64
2022/09/17 07:34:37;;;;;;;;;;;10.00;99.90;;;;;;5083540;28;19988;-65
2022/09/17 07:37:02;;;;;;;;;;;10.10;99.90;;;;;;5082484;28;19919;-63
2022/09/17 07:39:28;;;;;;;;;;;10.10;99.90;;;;;;5079050;28;19912;-64
2022/09/17 07:41:53;;;;;;;;;;;10.20;99.90;;;;;;5079142;28;19916;-63
2022/09/17 07:44:20;;;;;;;;;;;10.30;99.90;;;;;;5083540;28;19947;-64
2022/09/17 07:46:46;;;;;;;;;;;10.30;99.90;;;;;;5080138;28;19935;-65
2022/09/17 07:49:12;;;;;;;;;;;10.40;99.90;;;;;;5078740;28;19912;-64
2022/09/17 07:51:37;;;;;;;;;;;10.50;99.90;;;;;;5082766;28;19942;-63
2022/09/17 07:54:03;;;;;;;;;;;10.60;99.90;;;;;;5083433;28;19924;-64
2022/09/17 07:56:28;;;;;;;;;;;10.70;99.90;;;;;;5073233;28;19995;-63
2022/09/17 07:58:54;;;;;;;;;;;10.90;99.90;;;;;;5079719;28;19935;-63
2022/09/17 08:01:21;;;;;;;;;;;11.00;99.90;;;;;;5077602;28;20425;-63
2022/09/17 08:03:48;;;;;;;;;;;11.20;99.90;;;;;;5077970;28;19912;-64
2022/09/17 08:06:15;;;;;;;;;;;11.30;99.90;;;;;;5084413;28;19907;-63
2022/09/17 08:08:41;;;;;;;;;;;11.30;99.90;;;;;;5079557;28;19912;-63
2022/09/17 08:11:16;;;;;;;;;;;11.50;99.90;;;;;;5079267;28;19924;-63
2022/09/17 08:13:43;;;;;;;;;;;11.50;99.90;;;;;;5080131;28;19951;-64
2022/09/17 08:16:11;;;;;;;;;;;11.60;99.90;;;;;;5078249;28;19913;-64
2022/09/17 08:18:38;;;;;;;;;;;11.50;99.90;;;;;;5074202;28;19917;-63
2022/09/17 08:21:04;;;;;;;;;;;11.70;99.90;;;;;;5077198;28;19913;-63
2022/09/17 08:23:30;;;;;;;;;;;11.80;99.90;;;;;;5073676;28;19921;-64
2022/09/17 08:25:57;;;;;;;;;;;11.90;99.90;;;;;;5081654;28;19916;-64
2022/09/17 08:28:24;;;;;;;;;;;11.90;99.90;;;;;;5076693;28;19917;-62
2022/09/17 08:30:50;;;;;;;;;;;12.10;99.90;;;;;;5076168;28;20236;-61
2022/09/17 08:33:16;;;;;;;;;;;12.20;99.90;;;;;;5077514;28;19913;-63
2022/09/17 08:35:42;;;;;;;;;;;12.40;99.90;;;;;;5067010;28;19913;-63
2022/09/17 08:38:08;;;;;;;;;;;12.50;99.90;;;;;;5073240;28;19907;-64
2022/09/17 08:40:39;;;;;;;;;;;12.60;99.90;;;;;;5080812;28;19912;-63
2022/09/17 08:43:09;;;;;;;;;;;12.70;99.90;;;;;;5076500;28;19971;-63
2022/09/17 08:45:34;;;;;;;;;;;12.90;99.90;;;;;;5074905;28;20047;-64
2022/09/17 08:48:09;;;;;;;;;;;12.90;99.90;;;;;;5055204;28;19912;-64
2022/09/17 08:50:38;;;;;;;;;;;13.00;99.90;;;;;;5082824;28;19919;-65
2022/09/17 08:53:03;;;;;;;;;;;13.10;99.90;;;;;;5081151;28;19924;-64
2022/09/17 08:55:33;;;;;;;;;;;13.10;99.90;;;;;;5072664;28;19942;-64
2022/09/17 08:58:18;;;;;;;;;;;13.20;99.90;;;;;;5081223;28;19991;-63
2022/09/17 09:00:52;;;;;;;;;;;13.30;99.90;;;;;;5083634;28;20392;-65
2022/09/17 09:03:29;;;;;;;;;;;13.50;99.90;;;;;;5067050;28;19919;-64
2022/09/17 09:05:55;;;;;;;;;;;13.70;99.90;;;;;;5084614;28;19912;-65
2022/09/17 09:08:20;;;;;;;;;;;13.80;99.90;;;;;;5083941;28;19974;-65
2022/09/17 09:10:54;;;;;;;;;;;14.00;99.90;;;;;;5084740;28;20382;-64
2022/09/17 09:13:21;;;;;;;;;;;14.10;99.90;;;;;;5077626;28;19921;-64
2022/09/17 09:16:25;;;;;;;;;;;14.10;99.90;;;;;;5081402;28;19920;-65
2022/09/17 09:18:55;;;;;;;;;;;14.10;99.90;;;;;;4979765;28;19914;-65
2022/09/17 09:21:26;;;;;;;;;;;14.10;99.90;;;;;;5000590;28;19922;-64
2022/09/17 09:23:52;;;;;;;;;;;14.40;99.90;;;;;;5045450;28;19924;-65
2022/09/17 09:26:22;;;;;;;;;;;14.40;99.90;;;;;;5082507;28;19912;-64
2022/09/17 09:28:55;;;;;;;;;;;14.40;99.90;;;;;;5085207;28;19912;-65
2022/09/17 09:31:26;;;;;;;;;;;14.40;99.90;;;;;;5072684;28;20279;-64
2022/09/17 09:33:52;;;;;;;;;;;14.40;99.90;;;;;;5082644;28;19916;-64
2022/09/17 09:36:20;;;;;;;;;;;14.40;99.90;;;;;;5083872;28;19935;-64
2022/09/17 09:38:47;;;;;;;;;;;14.40;99.90;;;;;;5066595;28;19964;-64
2022/09/17 09:41:18;;;;;;;;;;;14.40;95.60;;;;;;5082147;28;19976;-64
2022/09/17 09:43:45;;;;;;;;;;;14.50;92.50;;;;;;5076841;28;19913;-64
2022/09/17 09:46:10;;;;;;;;;;;14.60;92.50;;;;;;5083487;28;19966;-65
2022/09/17 09:48:42;;;;;;;;;;;14.70;91.60;;;;;;5086196;28;19979;-64
2022/09/17 09:51:16;;;;;;;;;;;14.70;91.00;;;;;;5088452;28;19916;-64
2022/09/17 09:53:48;;;;;;;;;;;14.70;90.10;;;;;;5077674;28;20161;-65
2022/09/17 09:56:34;;;;;;;;;;;14.70;90.00;;;;;;5076682;28;19916;-64
2022/09/17 09:59:00;;;;;;;;;;;14.80;89.50;;;;;;5078686;28;19912;-64
2022/09/17 10:01:27;;;;;;;;;;;14.80;89.30;;;;;;5085081;28;20001;-64
2022/09/17 10:03:57;;;;;;;;;;;14.90;88.80;;;;;;5087570;28;19950;-64
2022/09/17 10:06:22;;;;;;;;;;;15.00;85.30;;;;;;5069092;28;19974;-64
2022/09/17 10:08:54;;;;;;;;;;;14.90;86.20;;;;;;5063802;28;19917;-64
2022/09/17 10:11:21;;;;;;;;;;;14.90;86.20;;;;;;5087422;28;19931;-64
2022/09/17 10:13:47;;;;;;;;;;;14.70;84.00;;;;;;5067957;28;19944;-64
2022/09/17 10:16:16;;;;;;;;;;;14.80;84.50;;;;;;5088890;28;19920;-65
2022/09/17 10:18:42;;;;;;;;;;;14.90;84.20;;;;;;5084339;28;20339;-64
2022/09/17 10:21:18;;;;;;;;;;;15.00;84.20;;;;;;5086100;28;19916;-64
2022/09/17 10:23:43;;;;;;;;;;;15.00;82.80;;;;;;5077177;28;19913;-64
2022/09/17 10:26:19;;;;;;;;;;;15.10;82.40;;;;;;5084959;28;19913;-65
2022/09/17 10:28:53;;;;;;;;;;;15.10;83.10;;;;;;5084848;28;20028;-64
2022/09/17 10:31:18;;;;;;;;;;;15.00;83.00;;;;;;5086242;28;20100;-64
2022/09/17 10:33:57;;;;;;;;;;;15.10;83.90;;;;;;5055987;28;20137;-64
2022/09/17 10:36:35;;;;;;;;;;;15.20;83.00;;;;;;5076297;28;19923;-64
2022/09/17 10:39:20;;;;;;;;;;;15.30;80.60;;;;;;5066730;28;19954;-65
2022/09/17 10:41:53;;;;;;;;;;;15.40;81.50;;;;;;5071205;28;20011;-64
2022/09/17 10:44:22;;;;;;;;;;;15.40;81.10;;;;;;5064407;28;20416;-64
2022/09/17 10:46:49;;;;;;;;;;;15.60;78.10;;;;;;5079555;28;20321;-64
2022/09/17 10:49:34;;;;;;;;;;;15.50;78.40;;;;;;5066848;28;20362;-65
2022/09/17 10:52:07;;;;;;;;;;;15.50;77.90;;;;;;5072921;28;19964;-65
2022/09/17 10:54:51;;;;;;;;;;;15.60;77.10;;;;;;5073175;28;20351;-64
2022/09/17 10:57:37;;;;;;;;;;;15.60;78.40;;;;;;5070778;28;20267;-65
2022/09/17 11:00:19;;;;;;;;;;;15.70;76.70;;;;;;5049932;28;19920;-64
2022/09/17 11:02:50;;;;;;;;;;;15.80;77.40;;;;;;5079596;28;20255;-65
2022/09/17 11:05:27;;;;;;;;;;;15.90;76.40;;;;;;5080306;28;19919;-65
2022/09/17 11:08:05;;;;;;;;;;;16.00;76.10;;;;;;5064985;28;19913;-63
2022/09/17 11:11:03;;;;;;;;;;;16.00;74.80;;;;;;5077502;28;19974;-64
2022/09/17 11:13:36;;;;;;;;;;;16.10;73.50;;;;;;5025447;28;20019;-66
2022/09/17 11:16:14;;;;;;;;;;;16.10;73.50;;;;;;5071024;28;20351;-65
2022/09/17 11:18:42;;;;;;;;;;;16.10;71.90;;;;;;5080542;28;19963;-65
2022/09/17 11:21:13;;;;;;;;;;;16.20;71.80;;;;;;5075611;28;19912;-66
2022/09/17 11:23:59;;;;;;;;;;;16.40;70.80;;;;;;5075483;28;19974;-64
2022/09/17 11:26:44;;;;;;;;;;;16.60;68.90;;;;;;5076832;28;20640;-66
2022/09/17 11:29:12;;;;;;;;;;;16.70;68.80;;;;;;5077041;28;19909;-66
2022/09/17 11:31:54;;;;;;;;;;;16.80;68.60;;;;;;5079110;28;19925;-64
2022/09/17 11:34:45;;;;;;;;;;;16.90;69.10;;;;;;5073942;28;19913;-65
2022/09/17 11:37:21;;;;;;;;;;;16.60;68.10;;;;;;5061109;28;19939;-65
2022/09/17 11:39:58;;;;;;;;;;;16.50;68.00;;;;;;5075872;28;19921;-65
2022/09/17 11:42:29;;;;;;;;;;;16.60;67.90;;;;;;5077331;28;19944;-65
2022/09/17 11:45:02;;;;;;;;;;;16.60;68.30;;;;;;5060008;28;19919;-64
2022/09/17 11:47:32;;;;;;;;;;;16.70;67.60;;;;;;5058108;28;19947;-64
2022/09/17 11:50:10;;;;;;;;;;;16.80;67.70;;;;;;5078110;28;19912;-64
2022/09/17 11:52:38;;;;;;;;;;;16.70;66.80;;;;;;5069100;28;19964;-64
2022/09/17 11:55:17;;;;;;;;;;;16.60;67.20;;;;;;5075923;28;19913;-64
2022/09/17 11:57:43;;;;;;;;;;;16.60;65.80;;;;;;5058361;28;19916;-65
2022/09/17 12:00:13;;;;;;;;;;;16.60;64.90;;;;;;5056571;28;19951;-64
2022/09/17 12:02:52;;;;;;;;;;;16.60;65.60;;;;;;5075027;28;19975;-64
2022/09/17 12:05:19;;;;;;;;;;;16.60;65.00;;;;;;5071333;28;19913;-64
2022/09/17 12:08:03;;;;;;;;;;;16.80;65.40;;;;;;5071917;28;19998;-64
2022/09/17 12:10:32;;;;;;;;;;;17.10;65.30;;;;;;5073306;28;19970;-65
2022/09/17 12:13:01;;;;;;;;;;;17.10;65.20;;;;;;5071837;28;19925;-65
2022/09/17 12:15:28;;;;;;;;;;;17.10;64.80;;;;;;5075110;28;19913;-64
2022/09/17 12:18:16;;;;;;;;;;;17.00;65.90;;;;;;5050734;28;19920;-65
2022/09/17 12:20:44;;;;;;;;;;;16.90;67.00;;;;;;5080510;28;19916;-65
2022/09/17 12:23:12;;;;;;;;;;;16.90;66.50;;;;;;5074763;28;20314;-63
2022/09/17 12:25:45;;;;;;;;;;;16.90;65.60;;;;;;5072284;28;19966;-64
2022/09/17 12:28:16;;;;;;;;;;;16.80;65.30;;;;;;5068385;28;19921;-65
2022/09/17 12:30:48;;;;;;;;;;;16.90;65.70;;;;;;5071612;28;19990;-64
2022/09/17 12:33:19;;;;;;;;;;;16.80;63.40;;;;;;5067944;28;19943;-65
2022/09/17 12:35:58;;;;;;;;;;;16.60;61.90;;;;;;5070503;28;20031;-62
2022/09/17 12:38:23;;;;;;;;;;;16.50;63.00;;;;;;5071464;28;19978;-60
2022/09/17 12:40:52;;;;;;;;;;;16.50;61.80;;;;;;5068830;28;20476;-65
2022/09/17 12:43:17;;;;;;;;;;;16.60;60.90;;;;;;5077872;28;19918;-65
2022/09/17 12:45:58;;;;;;;;;;;16.80;61.90;;;;;;5073899;28;19992;-64
2022/09/17 12:48:36;;;;;;;;;;;17.00;62.30;;;;;;5071974;28;19978;-63
2022/09/17 12:51:24;;;;;;;;;;;17.20;61.80;;;;;;5067557;28;19935;-65
2022/09/17 12:53:50;;;;;;;;;;;17.20;61.50;;;;;;5066334;28;20310;-65
2022/09/17 12:56:40;;;;;;;;;;;17.10;59.80;;;;;;5076030;28;19923;-64
2022/09/17 12:59:10;;;;;;;;;;;17.00;60.10;;;;;;5054939;28;19912;-66
2022/09/17 13:01:49;;;;;;;;;;;16.90;61.00;;;;;;5069948;28;19919;-65
2022/09/17 13:04:34;;;;;;;;;;;17.10;61.20;;;;;;5072939;28;19942;-65
2022/09/17 13:07:21;;;;;;;;;;;17.20;60.20;;;;;;5065576;28;19974;-66
2022/09/17 13:09:56;;;;;;;;;;;17.20;58.90;;;;;;5068598;28;20405;-63
2022/09/17 13:12:24;;;;;;;;;;;17.10;59.30;;;;;;5067786;28;19928;-65
2022/09/17 13:14:56;;;;;;;;;;;17.10;58.40;;;;;;5066706;28;19912;-64
2022/09/17 13:17:31;;;;;;;;;;;17.10;58.80;;;;;;5074694;28;19912;-63
2022/09/17 13:20:15;;;;;;;;;;;17.20;58.70;;;;;;5075322;28;19913;-65
2022/09/17 13:22:48;;;;;;;;;;;17.40;58.70;;;;;;5071766;28;20378;-64
2022/09/17 13:25:16;;;;;;;;;;;17.50;58.30;;;;;;5072468;28;19978;-62
2022/09/17 13:27:41;;;;;;;;;;;17.50;57.50;;;;;;5071049;28;19971;-64
2022/09/17 13:30:09;;;;;;;;;;;17.60;57.40;;;;;;5052479;28;20023;-65
2022/09/17 13:32:35;;;;;;;;;;;17.60;56.90;;;;;;5073108;28;19924;-64
2022/09/17 13:35:10;;;;;;;;;;;17.70;56.20;;;;;;5078715;28;19912;-63
2022/09/17 13:37:37;;;;;;;;;;;17.60;57.20;;;;;;5079091;28;19917;-63
2022/09/17 13:40:05;;;;;;;;;;;17.60;56.80;;;;;;5079621;28;19985;-63
2022/09/17 13:42:41;;;;;;;;;;;17.40;57.70;;;;;;5076372;28;20007;-64
2022/09/17 13:45:14;;;;;;;;;;;17.30;58.10;;;;;;5078222;28;20255;-64
2022/09/17 13:47:49;;;;;;;;;;;17.50;58.20;;;;;;5075392;28;19917;-64
2022/09/17 13:50:29;;;;;;;;;;;17.40;57.00;;;;;;5076389;28;20437;-64
2022/09/17 13:52:55;;;;;;;;;;;17.20;58.30;;;;;;5076661;28;19924;-64
2022/09/17 13:55:41;;;;;;;;;;;17.30;57.30;;;;;;5078962;28;19916;-63
2022/09/17 13:58:19;;;;;;;;;;;17.40;57.00;;;;;;5075237;28;19920;-64
2022/09/17 14:00:51;;;;;;;;;;;17.50;56.90;;;;;;5069784;28;19920;-65
2022/09/17 14:03:44;;;;;;;;;;;17.60;57.20;;;;;;5079908;28;19917;-64
2022/09/17 14:06:10;;;;;;;;;;;17.70;56.60;;;;;;5074310;28;19927;-64
2022/09/17 14:08:45;;;;;;;;;;;17.60;57.50;;;;;;5075143;28;19917;-64
2022/09/17 14:11:20;;;;;;;;;;;17.60;57.80;;;;;;5077924;28;19925;-63
2022/09/17 14:13:46;;;;;;;;;;;17.60;58.00;;;;;;5075055;28;19921;-64
2022/09/17 14:16:27;;;;;;;;;;;17.60;57.50;;;;;;5079198;28;20444;-65
2022/09/17 14:19:01;;;;;;;;;;;17.90;56.90;;;;;;5079191;28;19923;-64
2022/09/17 14:21:33;;;;;;;;;;;18.00;53.60;;;;;;5080584;28;19916;-65
2022/09/17 14:24:03;;;;;;;;;;;17.90;54.60;;;;;;5072367;28;19923;-64
2022/09/17 14:26:32;;;;;;;;;;;17.80;53.80;;;;;;5073594;28;19912;-65
2022/09/17 14:29:06;;;;;;;;;;;17.90;54.90;;;;;;5068544;28;19920;-64
2022/09/17 14:31:34;;;;;;;;;;;17.80;56.40;;;;;;5072565;28;19927;-65
2022/09/17 14:34:01;;;;;;;;;;;17.90;56.30;;;;;;5069765;28;20317;-65
2022/09/17 14:36:28;;;;;;;;;;;17.80;56.80;;;;;;5075048;28;19912;-65
2022/09/17 14:38:55;;;;;;;;;;;17.70;56.40;;;;;;5072552;28;19923;-64